Time;durP1;ratioP1;P1;durP2;ratioP2;P2;SDS_P1;SDS_P2;PMS_P1;PMS_P2;Temp;Humidity;BMP_temperature;BMP_pressure;BME280_temperature;BME280_humidity;BME280_pressure;Samples;Min_cycle;Max_cycle;Signal;HPM_P1;HPM_P2
2021/12/14 00:01:31;;;;;;;97.77;8.20;;;1.40;99.90;;;;;;5027092;28;20461;-59
2021/12/14 00:04:05;;;;;;;88.17;8.40;;;1.40;99.90;;;;;;5028190;28;20460;-58
2021/12/14 00:06:31;;;;;;;85.43;10.43;;;1.50;99.90;;;;;;5026269;28;20467;-59
2021/12/14 00:09:00;;;;;;;74.40;8.60;;;1.40;99.90;;;;;;5028413;28;20424;-59
2021/12/14 00:17:24;;;;;;;135.80;9.23;;;1.40;99.90;;;;;;5028202;28;20474;-58
2021/12/14 00:19:52;;;;;;;99.83;7.40;;;1.40;99.90;;;;;;5025132;28;20463;-59
2021/12/14 00:22:26;;;;;;;67.30;8.57;;;1.40;99.90;;;;;;5027684;28;20632;-59
2021/12/14 00:24:52;;;;;;;41.80;7.47;;;1.40;99.90;;;;;;5026601;28;20449;-57
2021/12/14 00:27:18;;;;;;;85.63;9.47;;;1.40;99.90;;;;;;5027219;28;20762;-57
2021/12/14 00:29:49;;;;;;;100.63;10.00;;;1.40;99.90;;;;;;5026709;28;20240;-59
2021/12/14 00:32:19;;;;;;;58.83;9.60;;;1.40;99.90;;;;;;5027657;28;20671;-59
2021/12/14 00:34:47;;;;;;;110.83;11.03;;;1.40;99.90;;;;;;5021828;28;20454;-56
2021/12/14 00:37:28;;;;;;;139.00;9.63;;;1.40;99.90;;;;;;5024341;28;20476;-58
2021/12/14 00:39:57;;;;;;;155.80;12.57;;;1.40;99.90;;;;;;5023077;28;20440;-58
2021/12/14 00:42:23;;;;;;;113.63;9.80;;;1.40;99.90;;;;;;5024622;28;20500;-59
2021/12/14 00:44:49;;;;;;;61.13;10.27;;;1.40;99.90;;;;;;5026394;28;20834;-59
2021/12/14 00:47:15;;;;;;;54.87;9.10;;;1.30;99.90;;;;;;5026480;28;20571;-58
2021/12/14 00:49:41;;;;;;;54.90;9.87;;;1.30;99.90;;;;;;5028571;28;20445;-59
2021/12/14 00:52:09;;;;;;;63.00;10.17;;;1.30;99.90;;;;;;5029417;28;20425;-58
2021/12/14 00:54:36;;;;;;;99.60;10.63;;;1.30;99.90;;;;;;5029590;28;20467;-59
2021/12/14 00:57:04;;;;;;;95.37;9.50;;;1.30;99.90;;;;;;5028558;28;20503;-59
2021/12/14 00:59:31;;;;;;;67.17;11.63;;;1.30;99.90;;;;;;5028802;28;20884;-59
2021/12/14 01:02:14;;;;;;;62.80;11.10;;;1.30;99.90;;;;;;5027432;28;20587;-58
2021/12/14 01:04:47;;;;;;;70.07;11.10;;;1.30;99.90;;;;;;5028366;28;20440;-59
2021/12/14 01:07:16;;;;;;;96.50;11.90;;;1.30;99.90;;;;;;5025687;28;20477;-60
2021/12/14 01:09:45;;;;;;;75.33;12.13;;;1.30;99.90;;;;;;5026277;28;20436;-57
2021/12/14 01:12:20;;;;;;;127.50;13.43;;;1.20;99.90;;;;;;5027712;28;20421;-56
2021/12/14 01:15:12;;;;;;;80.40;11.80;;;1.20;99.90;;;;;;5027109;28;20928;-59
2021/12/14 01:18:00;;;;;;;53.70;11.63;;;1.20;99.90;;;;;;5027140;28;20452;-57
2021/12/14 01:20:31;;;;;;;34.53;10.80;;;1.20;99.90;;;;;;5026446;28;20447;-59
2021/12/14 01:23:01;;;;;;;88.33;13.70;;;1.20;99.90;;;;;;5043445;28;20456;-63
2021/12/14 01:25:37;;;;;;;75.20;12.93;;;1.20;99.90;;;;;;5051146;28;20421;-60
2021/12/14 01:28:13;;;;;;;57.43;11.60;;;1.20;99.90;;;;;;5048410;28;21027;-63
2021/12/14 01:31:13;;;;;;;59.13;8.50;;;1.20;99.90;;;;;;5043589;28;20708;-59
2021/12/14 01:33:44;;;;;;;81.70;9.30;;;1.20;99.90;;;;;;5025030;28;20433;-59
2021/12/14 01:36:25;;;;;;;42.20;8.57;;;1.20;99.90;;;;;;5027859;28;20483;-59
2021/12/14 01:41:40;;;;;;;42.23;8.90;;;1.20;99.90;;;;;;5027699;28;20471;-59
2021/12/14 01:44:06;;;;;;;42.47;7.87;;;1.20;99.90;;;;;;5023688;28;20551;-57
2021/12/14 01:46:36;;;;;;;33.87;7.83;;;1.20;99.90;;;;;;5026479;28;20448;-59
2021/12/14 01:49:06;;;;;;;37.90;7.50;;;1.20;99.90;;;;;;5025937;28;20702;-58
2021/12/14 01:51:35;;;;;;;41.00;8.43;;;1.20;99.90;;;;;;5026630;28;20456;-57
2021/12/14 01:54:02;;;;;;;60.07;9.53;;;1.20;99.90;;;;;;5023918;28;20436;-60
2021/12/14 01:56:31;;;;;;;54.77;8.73;;;1.20;99.90;;;;;;5023299;28;20555;-59
2021/12/14 01:59:05;;;;;;;86.03;9.67;;;1.20;99.90;;;;;;5026557;28;20432;-61
2021/12/14 02:01:38;;;;;;;36.17;8.90;;;1.20;99.90;;;;;;5039712;28;20480;-55
2021/12/14 02:04:19;;;;;;;64.90;9.47;;;1.20;99.90;;;;;;5032435;28;20476;-61
2021/12/14 02:06:57;;;;;;;88.60;9.97;;;1.30;99.90;;;;;;5049527;28;20467;-60
2021/12/14 02:09:26;;;;;;;57.73;9.40;;;1.30;99.90;;;;;;5034386;28;20507;-56
2021/12/14 02:11:54;;;;;;;95.47;8.90;;;1.30;99.90;;;;;;5037871;28;20413;-61
2021/12/14 02:14:20;;;;;;;46.33;8.00;;;1.30;99.90;;;;;;5024720;28;20892;-59
2021/12/14 02:16:53;;;;;;;80.07;9.07;;;1.20;99.90;;;;;;5023842;28;20442;-59
2021/12/14 02:19:19;;;;;;;41.23;8.00;;;1.20;99.90;;;;;;5025434;28;20441;-61
2021/12/14 02:21:48;;;;;;;52.93;8.87;;;1.20;99.90;;;;;;5024524;28;20461;-59
2021/12/14 02:24:19;;;;;;;41.97;7.37;;;1.20;99.90;;;;;;5024545;28;20174;-55
2021/12/14 02:26:46;;;;;;;39.30;6.13;;;1.20;99.90;;;;;;5026278;28;20449;-59
2021/12/14 02:29:23;;;;;;;50.17;11.37;;;1.20;99.90;;;;;;5021994;28;20429;-58
2021/12/14 02:31:49;;;;;;;57.20;11.07;;;1.20;99.90;;;;;;5027316;28;20519;-57
2021/12/14 02:34:15;;;;;;;55.67;10.43;;;1.20;99.90;;;;;;5023697;28;20456;-59
2021/12/14 02:36:45;;;;;;;43.70;9.50;;;1.20;99.90;;;;;;5038915;28;20452;-58
2021/12/14 02:39:25;;;;;;;54.70;10.60;;;1.10;99.90;;;;;;5038600;28;20186;-60
2021/12/14 02:41:55;;;;;;;48.50;10.40;;;1.10;99.90;;;;;;5033269;28;20524;-59
2021/12/14 02:44:21;;;;;;;59.17;10.23;;;1.10;99.90;;;;;;5025194;28;20582;-59
2021/12/14 02:46:51;;;;;;;61.13;10.93;;;1.10;99.90;;;;;;5024940;28;20460;-59
2021/12/14 02:49:23;;;;;;;37.03;10.73;;;1.00;99.90;;;;;;5021652;28;20444;-56
2021/12/14 02:51:56;;;;;;;24.30;7.63;;;1.00;99.90;;;;;;5021644;28;20439;-58
2021/12/14 02:54:26;;;;;;;36.43;8.30;;;1.00;99.90;;;;;;5024702;28;20431;-58
2021/12/14 02:57:00;;;;;;;47.53;8.97;;;1.10;99.90;;;;;;5022027;28;20462;-58
2021/12/14 02:59:30;;;;;;;39.73;8.30;;;1.10;99.90;;;;;;5026713;28;20426;-59
2021/12/14 03:02:03;;;;;;;57.63;8.43;;;1.10;99.90;;;;;;5027681;28;20472;-61
2021/12/14 03:04:30;;;;;;;44.37;8.53;;;1.00;99.90;;;;;;5027043;28;20519;-58
2021/12/14 03:06:59;;;;;;;28.73;9.10;;;1.00;99.90;;;;;;5050830;23;20494;-60
2021/12/14 03:12:36;;;;;;;19.73;8.17;;;0.90;99.90;;;;;;5028779;28;20471;-60
2021/12/14 03:15:28;;;;;;;32.90;8.80;;;1.00;99.90;;;;;;5026828;28;20433;-60
2021/12/14 03:17:58;;;;;;;26.27;8.23;;;1.00;99.90;;;;;;5008202;28;20456;-60
2021/12/14 03:20:47;;;;;;;38.13;9.40;;;1.00;99.90;;;;;;5007186;28;20793;-60
2021/12/14 03:23:21;;;;;;;37.07;9.23;;;1.00;99.90;;;;;;5008726;28;20489;-59
2021/12/14 03:25:52;;;;;;;24.87;8.20;;;1.00;99.90;;;;;;5007855;28;20779;-60
2021/12/14 03:28:21;;;;;;;45.57;10.10;;;1.00;99.90;;;;;;5008531;28;20425;-60
2021/12/14 03:30:47;;;;;;;38.97;9.27;;;1.00;99.90;;;;;;5007095;28;20878;-60
2021/12/14 03:33:18;;;;;;;65.07;12.63;;;1.00;99.90;;;;;;5006856;28;20469;-60
2021/12/14 03:35:48;;;;;;;69.10;13.27;;;1.00;99.90;;;;;;5009148;28;20186;-60
2021/12/14 03:38:31;;;;;;;74.23;13.53;;;1.00;99.90;;;;;;5008264;28;20429;-60
2021/12/14 03:41:06;;;;;;;69.75;14.05;;;1.00;99.90;;;;;;5008228;28;20432;-59
2021/12/14 03:43:33;;;;;;;159.43;16.47;;;1.00;99.90;;;;;;5008022;28;20444;-60
2021/12/14 03:45:59;;;;;;;94.77;13.70;;;1.00;99.90;;;;;;5008609;28;20432;-60
2021/12/14 03:48:27;;;;;;;134.03;15.40;;;1.00;99.90;;;;;;5007787;28;20542;-60
2021/12/14 03:50:54;;;;;;;85.67;13.03;;;0.90;99.90;;;;;;5005398;28;20176;-60
2021/12/14 03:53:21;;;;;;;54.13;12.33;;;0.90;99.90;;;;;;5007573;28;20465;-60
2021/12/14 03:55:50;;;;;;;79.77;11.30;;;0.90;99.90;;;;;;5006717;28;20426;-59
2021/12/14 03:58:20;;;;;;;162.40;16.90;;;0.90;99.90;;;;;;5007627;28;20477;-60
2021/12/14 04:01:00;;;;;;;129.63;14.50;;;0.90;99.90;;;;;;5004824;28;20426;-59
2021/12/14 04:03:27;;;;;;;130.67;14.67;;;0.80;99.90;;;;;;5008487;28;20509;-59
2021/12/14 04:05:54;;;;;;;84.63;13.60;;;0.80;99.90;;;;;;5006632;28;20432;-60
2021/12/14 04:08:22;;;;;;;148.90;15.50;;;0.80;99.90;;;;;;5007528;28;20537;-60
2021/12/14 04:10:49;;;;;;;55.93;13.33;;;0.90;99.90;;;;;;5002860;28;20942;-59
2021/12/14 04:13:18;;;;;;;52.83;13.53;;;0.80;99.90;;;;;;5004942;28;20564;-60
2021/12/14 04:15:44;;;;;;;128.50;15.77;;;0.80;99.90;;;;;;5004416;28;20436;-60
2021/12/14 04:18:10;;;;;;;50.40;13.70;;;0.80;99.90;;;;;;5026146;28;20516;-60
2021/12/14 04:20:39;;;;;;;74.23;13.23;;;0.80;99.90;;;;;;5007412;28;20182;-60
2021/12/14 04:23:30;;;;;;;92.40;15.03;;;0.80;99.90;;;;;;5006054;28;20474;-60
2021/12/14 04:25:58;;;;;;;72.37;12.40;;;0.80;99.90;;;;;;5006859;28;20425;-60
2021/12/14 04:28:31;;;;;;;86.23;13.83;;;0.80;99.90;;;;;;5006126;28;20426;-60
2021/12/14 04:30:57;;;;;;;147.47;15.13;;;0.80;99.90;;;;;;5005345;28;20430;-60
2021/12/14 04:33:28;;;;;;;106.30;13.30;;;0.70;99.90;;;;;;5007814;28;20422;-60
2021/12/14 04:35:55;;;;;;;75.80;11.73;;;0.70;99.90;;;;;;5007645;28;20847;-60
2021/12/14 04:38:27;;;;;;;125.87;14.23;;;0.70;99.90;;;;;;5006999;28;20430;-60
2021/12/14 04:52:16;;;;;;;106.77;11.90;;;0.50;99.90;;;;;;5007736;28;20428;-60
2021/12/14 04:54:47;;;;;;;84.67;11.90;;;0.50;99.90;;;;;;5019152;28;20430;-60
2021/12/14 04:57:20;;;;;;;76.87;11.93;;;0.50;99.90;;;;;;5005347;28;20464;-60
2021/12/14 04:59:47;;;;;;;108.77;13.27;;;0.60;99.90;;;;;;5007210;28;20783;-59
2021/12/14 05:02:19;;;;;;;98.50;12.07;;;0.50;99.90;;;;;;5006360;28;20952;-60
2021/12/14 05:04:45;;;;;;;38.47;10.60;;;0.50;99.90;;;;;;5009297;28;20420;-60
2021/12/14 05:09:55;;;;;;;60.83;12.87;;;0.60;99.90;;;;;;4999429;28;20795;-60
2021/12/14 05:12:32;;;;;;;58.30;13.97;;;0.60;99.90;;;;;;5006314;28;20991;-61
2021/12/14 05:15:06;;;;;;;52.37;14.63;;;0.60;99.90;;;;;;5003138;28;20952;-60
2021/12/14 05:17:35;;;;;;;36.70;12.87;;;0.60;99.90;;;;;;5002307;28;21039;-61
2021/12/14 05:20:03;;;;;;;58.20;14.60;;;0.60;99.90;;;;;;5004659;28;20494;-60
2021/12/14 05:22:33;;;;;;;68.77;15.63;;;0.60;99.90;;;;;;5003758;28;20550;-60
2021/12/14 05:25:04;;;;;;;102.63;14.50;;;0.60;99.90;;;;;;5009284;28;20441;-61
2021/12/14 05:27:36;;;;;;;49.20;12.40;;;0.70;99.90;;;;;;4995486;28;20458;-59
2021/12/14 05:30:19;;;;;;;45.33;13.33;;;0.70;99.90;;;;;;4999065;28;20946;-61
2021/12/14 05:32:46;;;;;;;13.77;7.37;;;0.70;99.90;;;;;;4996774;28;20436;-61
2021/12/14 05:35:15;;;;;;;11.30;5.80;;;0.70;99.90;;;;;;4998642;28;20500;-59
2021/12/14 05:37:48;;;;;;;9.97;4.87;;;0.70;99.90;;;;;;5000648;28;20457;-61
2021/12/14 05:40:25;;;;;;;9.80;5.33;;;0.70;99.90;;;;;;5010653;28;20448;-61
2021/12/14 05:43:07;;;;;;;13.30;5.60;;;0.70;99.90;;;;;;5003931;28;20564;-60
2021/12/14 05:45:40;;;;;;;15.13;6.10;;;0.70;99.90;;;;;;4995263;28;21201;-61
2021/12/14 05:48:08;;;;;;;12.40;6.50;;;0.70;99.90;;;;;;4999946;28;21048;-57
2021/12/14 05:50:45;;;;;;;14.53;7.37;;;0.70;99.90;;;;;;4998656;28;21442;-60
2021/12/14 05:53:31;;;;;;;12.67;6.50;;;0.70;99.90;;;;;;5007301;28;20521;-61
2021/12/14 05:56:01;;;;;;;11.80;6.60;;;0.70;99.90;;;;;;5006823;28;20438;-61
2021/12/14 05:58:27;;;;;;;12.47;6.57;;;0.70;99.90;;;;;;5000675;28;20435;-60
2021/12/14 06:01:00;;;;;;;15.80;7.53;;;0.70;99.90;;;;;;4999556;28;20453;-61
2021/12/14 06:03:35;;;;;;;15.93;8.20;;;0.80;99.90;;;;;;5007468;28;20487;-59
2021/12/14 06:06:02;;;;;;;14.90;6.60;;;0.80;99.90;;;;;;5002628;28;20503;-60
2021/12/14 06:08:34;;;;;;;13.97;7.00;;;0.80;99.90;;;;;;5006898;28;20456;-61
2021/12/14 06:11:00;;;;;;;22.90;8.17;;;0.80;99.90;;;;;;5001667;28;20514;-60
2021/12/14 06:13:42;;;;;;;21.90;9.00;;;0.80;99.90;;;;;;5008373;28;20438;-60
2021/12/14 06:16:20;;;;;;;18.73;8.57;;;0.80;99.90;;;;;;5010890;28;20515;-60
2021/12/14 06:18:46;;;;;;;15.77;7.80;;;0.80;99.90;;;;;;5011310;28;20454;-61
2021/12/14 06:21:12;;;;;;;19.83;8.30;;;0.90;99.90;;;;;;5006075;28;20437;-60
2021/12/14 06:23:39;;;;;;;17.53;8.83;;;0.80;99.90;;;;;;5006806;28;20545;-61
2021/12/14 06:26:05;;;;;;;17.03;8.10;;;0.80;99.90;;;;;;5006796;28;20448;-61
2021/12/14 06:28:31;;;;;;;14.93;6.80;;;0.80;99.90;;;;;;5006713;28;20436;-61
2021/12/14 06:30:59;;;;;;;11.77;6.90;;;0.80;99.90;;;;;;5007298;28;20446;-59
2021/12/14 06:33:29;;;;;;;10.33;5.60;;;0.80;99.90;;;;;;5008446;28;20432;-60
2021/12/14 06:35:59;;;;;;;9.13;5.40;;;0.80;99.90;;;;;;5010596;28;21032;-60
2021/12/14 06:38:31;;;;;;;27.53;10.13;;;0.80;99.90;;;;;;5014190;28;20435;-61
2021/12/14 06:40:59;;;;;;;23.37;10.53;;;0.70;99.90;;;;;;5005828;28;20434;-61
2021/12/14 06:43:30;;;;;;;16.70;7.70;;;0.70;99.90;;;;;;5008497;28;20825;-60
2021/12/14 06:46:02;;;;;;;19.30;8.47;;;0.70;99.90;;;;;;5008642;28;20535;-60
2021/12/14 06:48:30;;;;;;;20.40;9.67;;;0.70;99.90;;;;;;5008852;28;20457;-60
2021/12/14 06:51:08;;;;;;;39.77;11.07;;;0.70;99.90;;;;;;5026046;28;20423;-61
2021/12/14 06:53:34;;;;;;;26.77;10.70;;;0.70;99.90;;;;;;5011977;28;20439;-60
2021/12/14 06:56:04;;;;;;;28.43;10.63;;;0.70;99.90;;;;;;5005193;28;20445;-61
2021/12/14 06:58:34;;;;;;;20.00;8.33;;;0.70;99.90;;;;;;5001991;28;20433;-60
2021/12/14 07:01:14;;;;;;;21.60;9.67;;;0.70;99.90;;;;;;5009342;28;20556;-61
2021/12/14 07:03:39;;;;;;;19.93;8.73;;;0.70;99.90;;;;;;5003905;28;20469;-60
2021/12/14 07:06:06;;;;;;;19.27;9.90;;;0.70;99.90;;;;;;5005296;28;20434;-61
2021/12/14 07:08:31;;;;;;;26.23;10.50;;;0.70;99.90;;;;;;5006038;28;20190;-60
2021/12/14 07:10:57;;;;;;;34.00;12.60;;;0.70;99.90;;;;;;5004460;28;20441;-60
2021/12/14 07:13:28;;;;;;;43.17;11.90;;;0.70;99.90;;;;;;4999494;28;20831;-60
2021/12/14 07:15:54;;;;;;;29.53;11.17;;;0.70;99.90;;;;;;5006675;28;20187;-58
2021/12/14 07:18:32;;;;;;;26.83;10.63;;;0.70;99.90;;;;;;5004087;28;20443;-60
2021/12/14 07:20:58;;;;;;;34.43;10.53;;;0.80;99.90;;;;;;5007271;28;20248;-59
2021/12/14 07:23:28;;;;;;;26.80;11.57;;;0.80;99.90;;;;;;5001683;28;20574;-60
2021/12/14 07:26:00;;;;;;;33.63;11.27;;;0.80;99.90;;;;;;5005174;28;20437;-59
2021/12/14 07:28:38;;;;;;;32.47;12.03;;;0.80;99.90;;;;;;5005363;28;20462;-60
2021/12/14 07:31:24;;;;;;;26.73;10.20;;;0.80;99.90;;;;;;5009756;28;20433;-60
2021/12/14 07:33:56;;;;;;;31.77;11.60;;;0.80;99.90;;;;;;5008265;28;20436;-60
2021/12/14 07:36:34;;;;;;;38.57;11.90;;;0.80;99.90;;;;;;5000509;28;20460;-60
2021/12/14 07:39:14;;;;;;;39.43;13.30;;;0.80;99.90;;;;;;5005556;28;20928;-60
2021/12/14 07:41:47;;;;;;;28.70;12.13;;;0.80;99.90;;;;;;5004324;28;20877;-60
2021/12/14 07:44:20;;;;;;;34.93;12.50;;;0.70;99.90;;;;;;5006332;28;20460;-60
2021/12/14 07:46:48;;;;;;;49.23;13.70;;;0.70;99.90;;;;;;5003780;28;20455;-58
2021/12/14 07:49:23;;;;;;;43.87;13.90;;;0.70;99.90;;;;;;5004634;28;20438;-60
2021/12/14 07:51:52;;;;;;;35.20;13.07;;;0.70;99.90;;;;;;5006654;28;20425;-60
2021/12/14 07:54:30;;;;;;;54.67;12.83;;;0.70;99.90;;;;;;5011383;28;20429;-60
2021/12/14 07:56:58;;;;;;;64.23;13.13;;;0.70;99.90;;;;;;5011492;28;20543;-60
2021/12/14 07:59:26;;;;;;;49.13;12.63;;;0.70;99.90;;;;;;5009710;28;20449;-60
2021/12/14 08:02:08;;;;;;;44.60;14.80;;;0.70;99.90;;;;;;5008807;28;20469;-60
2021/12/14 08:04:36;;;;;;;42.13;14.80;;;0.70;99.90;;;;;;5025546;28;20516;-61
2021/12/14 08:07:03;;;;;;;43.07;13.43;;;0.70;99.90;;;;;;5007063;28;20466;-60
2021/12/14 08:09:49;;;;;;;55.77;13.93;;;0.70;99.90;;;;;;5003812;28;20425;-60
2021/12/14 08:12:35;;;;;;;40.40;13.83;;;0.70;99.90;;;;;;5005474;28;20441;-61
2021/12/14 08:15:06;;;;;;;40.20;13.53;;;0.70;99.90;;;;;;5015574;28;20437;-62
2021/12/14 08:17:32;;;;;;;53.53;14.53;;;0.70;99.90;;;;;;5007161;28;20482;-59
2021/12/14 08:19:58;;;;;;;40.50;14.00;;;0.80;99.90;;;;;;5017868;28;20882;-60
2021/12/14 08:22:32;;;;;;;53.53;15.67;;;0.80;99.90;;;;;;5009205;28;20207;-60
2021/12/14 08:24:59;;;;;;;45.03;15.87;;;0.80;99.90;;;;;;5006582;28;20245;-60
2021/12/14 08:27:27;;;;;;;39.53;15.13;;;0.80;99.90;;;;;;5009071;28;20567;-60
2021/12/14 08:29:56;;;;;;;59.23;20.40;;;0.80;99.90;;;;;;5012733;28;20429;-60
2021/12/14 08:32:25;;;;;;;56.80;20.20;;;0.80;99.90;;;;;;5014879;28;21552;-60
2021/12/14 08:34:54;;;;;;;51.63;17.70;;;0.90;99.90;;;;;;5010808;28;20448;-59
2021/12/14 08:37:28;;;;;;;47.20;17.77;;;0.90;99.90;;;;;;5008939;28;20449;-60
2021/12/14 08:40:00;;;;;;;46.63;15.53;;;0.90;99.90;;;;;;5009809;28;20421;-60
2021/12/14 08:42:46;;;;;;;43.00;16.47;;;1.00;99.90;;;;;;5005990;28;20832;-61
2021/12/14 08:45:27;;;;;;;44.20;17.27;;;1.00;99.90;;;;;;5009040;28;20783;-59
2021/12/14 08:47:57;;;;;;;41.03;14.37;;;1.10;99.90;;;;;;5009893;28;20523;-60
2021/12/14 08:50:23;;;;;;;24.70;12.00;;;1.10;99.90;;;;;;4999420;28;20985;-63
2021/12/14 08:52:52;;;;;;;38.50;15.10;;;1.10;99.90;;;;;;5005365;28;20430;-61
2021/12/14 08:55:19;;;;;;;43.27;15.97;;;1.20;99.90;;;;;;5003530;28;20457;-61
2021/12/14 08:57:45;;;;;;;49.63;15.83;;;1.20;99.90;;;;;;5003038;28;20444;-61
2021/12/14 09:00:16;;;;;;;40.43;15.20;;;1.20;99.90;;;;;;5000775;28;20436;-61
2021/12/14 09:02:45;;;;;;;42.43;16.50;;;1.30;99.90;;;;;;5020085;28;20493;-61
2021/12/14 09:05:26;;;;;;;42.93;14.87;;;1.30;99.90;;;;;;5011407;28;20455;-62
2021/12/14 09:07:51;;;;;;;43.77;14.40;;;1.30;99.90;;;;;;5039489;28;20479;-61
2021/12/14 09:10:21;;;;;;;42.93;16.77;;;1.40;99.90;;;;;;5008836;28;20429;-60
2021/12/14 09:12:50;;;;;;;39.63;15.30;;;1.40;99.90;;;;;;5002972;28;20569;-61
2021/12/14 09:15:24;;;;;;;37.03;14.27;;;1.40;99.90;;;;;;5010207;28;20437;-61
2021/12/14 09:17:52;;;;;;;40.80;14.93;;;1.40;99.90;;;;;;5028261;28;20468;-60
2021/12/14 09:20:42;;;;;;;43.67;15.70;;;1.40;99.90;;;;;;5012905;28;20421;-60
2021/12/14 09:23:14;;;;;;;42.57;14.60;;;1.50;99.90;;;;;;5009545;28;20461;-61
2021/12/14 09:25:41;;;;;;;39.30;15.47;;;1.50;99.90;;;;;;5005754;28;20441;-61
2021/12/14 09:28:08;;;;;;;36.67;13.53;;;1.50;99.90;;;;;;5011536;28;20448;-61
2021/12/14 09:30:39;;;;;;;36.93;15.07;;;1.50;99.90;;;;;;5007192;28;20445;-61
2021/12/14 09:33:06;;;;;;;33.70;13.03;;;1.70;99.90;;;;;;5010941;28;20445;-59
2021/12/14 09:35:35;;;;;;;31.50;12.07;;;1.70;99.90;;;;;;5009269;28;20524;-61
2021/12/14 09:38:02;;;;;;;27.57;11.00;;;1.80;99.90;;;;;;5013314;28;20454;-60
2021/12/14 09:40:37;;;;;;;21.07;9.97;;;1.90;99.90;;;;;;5007039;28;20431;-61
2021/12/14 09:43:04;;;;;;;24.33;11.17;;;1.90;99.90;;;;;;5000255;28;20469;-62
2021/12/14 09:45:34;;;;;;;32.10;12.27;;;2.00;99.90;;;;;;5012257;28;20820;-61
2021/12/14 09:48:02;;;;;;;28.13;12.83;;;2.10;99.90;;;;;;5006652;28;20442;-61
2021/12/14 09:50:32;;;;;;;32.80;14.37;;;2.10;99.90;;;;;;5008512;28;21901;-63
2021/12/14 09:53:00;;;;;;;42.77;15.60;;;2.10;99.90;;;;;;5005406;28;20539;-61
2021/12/14 09:55:29;;;;;;;34.10;15.57;;;2.10;99.90;;;;;;5007011;28;20803;-61
2021/12/14 09:57:58;;;;;;;29.80;14.50;;;2.20;99.90;;;;;;5010423;28;20519;-61
2021/12/14 10:00:31;;;;;;;35.63;14.30;;;2.20;99.90;;;;;;5003352;28;20438;-59
2021/12/14 10:02:59;;;;;;;26.90;13.30;;;2.20;99.90;;;;;;5008589;28;22769;-60
2021/12/14 10:05:31;;;;;;;23.10;12.20;;;2.40;99.90;;;;;;5008945;28;20440;-60
2021/12/14 10:07:58;;;;;;;18.40;10.73;;;2.40;99.90;;;;;;5019052;28;20850;-62
2021/12/14 10:10:26;;;;;;;17.57;10.23;;;2.50;99.90;;;;;;5006677;28;20427;-61
2021/12/14 10:12:55;;;;;;;26.90;11.40;;;2.60;99.90;;;;;;5010077;28;20541;-61
2021/12/14 10:15:49;;;;;;;18.10;8.70;;;2.70;99.90;;;;;;5009562;28;20481;-60
2021/12/14 10:18:29;;;;;;;18.37;9.80;;;2.80;99.90;;;;;;5017457;28;20438;-61
2021/12/14 10:21:01;;;;;;;27.87;12.27;;;2.90;99.90;;;;;;4999215;28;20518;-61
2021/12/14 10:23:27;;;;;;;16.90;9.70;;;3.00;99.90;;;;;;5013026;28;20462;-59
2021/12/14 10:25:54;;;;;;;19.60;10.37;;;3.10;99.90;;;;;;5010124;28;20440;-61
2021/12/14 10:28:22;;;;;;;14.00;8.80;;;3.30;99.90;;;;;;5005540;28;20430;-60
2021/12/14 10:30:55;;;;;;;25.87;11.67;;;3.50;99.90;;;;;;5009679;28;20470;-60
2021/12/14 10:33:22;;;;;;;27.57;13.23;;;3.80;99.90;;;;;;5008666;28;20433;-60
2021/12/14 10:35:54;;;;;;;20.47;10.60;;;3.90;99.90;;;;;;5000983;28;20434;-61
2021/12/14 10:38:29;;;;;;;22.43;11.47;;;4.00;99.90;;;;;;5006880;28;20431;-61
2021/12/14 10:43:55;;;;;;;28.23;13.07;;;4.30;99.90;;;;;;5006698;28;20434;-61
2021/12/14 10:46:32;;;;;;;22.33;10.77;;;4.20;99.90;;;;;;5004457;28;20451;-60
2021/12/14 10:48:58;;;;;;;23.10;11.47;;;4.10;99.90;;;;;;5013349;28;20430;-60
2021/12/14 10:51:30;;;;;;;31.00;13.57;;;4.10;99.90;;;;;;5006656;28;20474;-61
2021/12/14 10:53:58;;;;;;;23.53;12.10;;;4.00;99.90;;;;;;5005005;28;20431;-63
2021/12/14 10:56:49;;;;;;;27.10;11.33;;;3.90;99.90;;;;;;5006270;28;20834;-61
2021/12/14 10:59:17;;;;;;;26.07;12.83;;;3.80;99.90;;;;;;4996653;28;20467;-59
2021/12/14 11:01:49;;;;;;;24.23;13.10;;;3.90;99.90;;;;;;5007486;28;20506;-61
2021/12/14 11:04:18;;;;;;;28.90;13.00;;;4.00;99.90;;;;;;5004547;28;20431;-61
2021/12/14 11:06:47;;;;;;;23.97;13.17;;;4.10;99.90;;;;;;5007364;28;20903;-58
2021/12/14 11:09:42;;;;;;;25.83;12.53;;;4.20;99.90;;;;;;5006547;28;20442;-62
2021/12/14 11:12:30;;;;;;;31.27;13.77;;;4.20;99.90;;;;;;5002588;28;20442;-60
2021/12/14 11:15:24;;;;;;;23.50;12.27;;;4.20;99.90;;;;;;5006904;28;20904;-60
2021/12/14 11:18:11;;;;;;;27.33;12.87;;;4.20;99.90;;;;;;5005628;28;20965;-61
2021/12/14 11:20:36;;;;;;;31.03;13.33;;;4.20;99.90;;;;;;5004982;28;20444;-60
2021/12/14 11:23:14;;;;;;;23.33;12.50;;;4.20;99.90;;;;;;5000412;28;20520;-53
2021/12/14 11:25:48;;;;;;;25.53;12.60;;;4.10;99.90;;;;;;5005957;28;20788;-61
2021/12/14 11:28:34;;;;;;;23.07;12.57;;;4.20;99.90;;;;;;5010564;28;20449;-60
2021/12/14 11:31:22;;;;;;;25.13;12.10;;;4.30;99.90;;;;;;4995695;28;20442;-61
2021/12/14 11:34:01;;;;;;;31.57;14.23;;;4.30;99.90;;;;;;5011022;28;20586;-60
2021/12/14 11:36:34;;;;;;;27.03;12.83;;;4.40;99.90;;;;;;5008454;28;20874;-61
2021/12/14 11:39:10;;;;;;;25.67;13.30;;;4.40;99.90;;;;;;5010547;28;20426;-60
2021/12/14 11:42:04;;;;;;;26.20;14.33;;;4.50;99.90;;;;;;5007805;28;20462;-61
2021/12/14 11:44:42;;;;;;;26.10;13.57;;;4.60;99.90;;;;;;5013814;28;20763;-58
2021/12/14 11:50:05;;;;;;;25.03;13.33;;;4.50;99.90;;;;;;5003042;28;20480;-58
2021/12/14 11:52:36;;;;;;;24.73;12.77;;;4.50;99.90;;;;;;5009249;28;20478;-61
2021/12/14 11:55:16;;;;;;;24.00;12.20;;;4.50;99.90;;;;;;5002517;28;20437;-60
2021/12/14 11:57:42;;;;;;;21.60;12.20;;;4.50;99.90;;;;;;5025860;28;20493;-61
2021/12/14 12:00:17;;;;;;;20.83;11.50;;;4.50;99.90;;;;;;5008610;28;20444;-60
2021/12/14 12:02:42;;;;;;;19.37;11.90;;;4.60;99.90;;;;;;5010139;28;20463;-60
2021/12/14 12:05:26;;;;;;;17.50;10.30;;;4.60;99.90;;;;;;5010113;28;20497;-61
2021/12/14 12:10:47;;;;;;;27.80;12.70;;;4.80;99.90;;;;;;5010808;28;20429;-61
2021/12/14 12:13:14;;;;;;;21.83;12.13;;;4.90;99.90;;;;;;5010134;28;20804;-61
2021/12/14 12:15:43;;;;;;;28.40;13.23;;;4.90;99.90;;;;;;5001332;28;20436;-61
2021/12/14 12:18:09;;;;;;;24.40;12.60;;;5.00;99.90;;;;;;5009296;28;20455;-61
2021/12/14 12:20:39;;;;;;;27.87;13.17;;;5.00;99.90;;;;;;5030819;28;20933;-61
2021/12/14 12:23:08;;;;;;;31.80;14.07;;;5.00;99.90;;;;;;5011601;28;20486;-61
2021/12/14 12:25:44;;;;;;;24.67;13.53;;;5.00;99.90;;;;;;5004568;28;20957;-60
2021/12/14 12:28:18;;;;;;;24.27;13.60;;;5.10;99.90;;;;;;5012274;28;20442;-62
2021/12/14 12:31:00;;;;;;;32.13;14.00;;;5.20;99.90;;;;;;5007619;28;20809;-61
2021/12/14 12:33:33;;;;;;;23.57;12.53;;;5.30;99.90;;;;;;5010448;28;20427;-61
2021/12/14 12:36:08;;;;;;;24.17;12.67;;;5.30;99.90;;;;;;5009832;28;20415;-61
2021/12/14 12:38:40;;;;;;;22.20;13.50;;;5.40;99.90;;;;;;4993226;28;20422;-61
2021/12/14 12:41:30;;;;;;;21.50;12.40;;;5.50;99.90;;;;;;5007876;28;20442;-62
2021/12/14 12:43:59;;;;;;;23.00;12.17;;;5.60;99.90;;;;;;5006651;28;20429;-61
2021/12/14 12:46:27;;;;;;;19.00;11.83;;;5.60;99.90;;;;;;5000745;28;20448;-60
2021/12/14 12:48:58;;;;;;;21.50;11.73;;;5.60;99.90;;;;;;5004320;28;20519;-61
2021/12/14 12:52:01;;;;;;;22.23;12.43;;;5.60;99.90;;;;;;5006051;28;21001;-61
2021/12/14 12:54:46;;;;;;;20.50;12.10;;;5.70;99.90;;;;;;5004503;28;20423;-59
2021/12/14 12:57:17;;;;;;;28.83;13.10;;;5.70;99.90;;;;;;5002616;28;20532;-60
2021/12/14 12:59:57;;;;;;;21.60;12.40;;;5.80;99.90;;;;;;5007753;28;20436;-61
2021/12/14 13:02:31;;;;;;;21.03;11.70;;;5.80;99.90;;;;;;5007563;28;20458;-61
2021/12/14 13:05:14;;;;;;;20.63;11.70;;;5.80;99.90;;;;;;5001435;28;20818;-60
2021/12/14 13:07:43;;;;;;;21.77;11.77;;;5.80;99.90;;;;;;4994099;28;20471;-62
2021/12/14 13:10:15;;;;;;;25.50;12.50;;;5.80;99.90;;;;;;5017940;28;20574;-61
2021/12/14 13:12:54;;;;;;;21.33;11.73;;;5.90;99.90;;;;;;5007258;28;20430;-58
2021/12/14 13:15:55;;;;;;;18.77;12.00;;;5.90;99.90;;;;;;5023936;28;20439;-61
2021/12/14 13:18:23;;;;;;;24.93;13.10;;;5.90;99.90;;;;;;5006883;28;20427;-61
2021/12/14 13:20:54;;;;;;;25.63;15.50;;;5.90;99.90;;;;;;5006163;28;20499;-61
2021/12/14 13:23:35;;;;;;;25.80;14.10;;;6.00;99.90;;;;;;5009372;28;20458;-61
2021/12/14 13:26:01;;;;;;;24.43;13.53;;;6.00;99.90;;;;;;5008745;28;20422;-60
2021/12/14 13:28:40;;;;;;;24.00;14.67;;;6.00;99.90;;;;;;5009327;28;20407;-58
2021/12/14 13:31:06;;;;;;;26.33;14.03;;;6.00;99.90;;;;;;5001533;28;20180;-61
2021/12/14 13:33:32;;;;;;;21.23;11.73;;;6.10;99.90;;;;;;5005151;28;20435;-61
2021/12/14 13:35:58;;;;;;;20.30;12.97;;;6.10;99.90;;;;;;5003406;28;20196;-61
2021/12/14 13:38:23;;;;;;;20.73;11.70;;;6.10;99.90;;;;;;5008209;28;20431;-60